sensor_id;sensor_type;location;lat;lon;timestamp;P1;durP1;ratioP1;P2;durP2;ratioP2
35897;SDS011;21997;47.118;15.346;2022-09-01T00:24:57;3.30;;;2.60;;
35897;SDS011;21997;47.118;15.346;2022-09-01T00:58:53;2.63;;;2.43;;
35897;SDS011;21997;47.118;15.346;2022-09-01T01:42:01;2.50;;;2.30;;
35897;SDS011;21997;47.118;15.346;2022-09-01T01:58:28;3.07;;;2.47;;
35897;SDS011;21997;47.118;15.346;2022-09-01T02:01:13;3.73;;;2.70;;
35897;SDS011;21997;47.118;15.346;2022-09-01T02:07:58;4.30;;;2.83;;
35897;SDS011;21997;47.118;15.346;2022-09-01T02:32:19;3.20;;;2.90;;
35897;SDS011;21997;47.118;15.346;2022-09-01T02:42:00;3.07;;;2.87;;
35897;SDS011;21997;47.118;15.346;2022-09-01T02:58:33;5.87;;;3.10;;
35897;SDS011;21997;47.118;15.346;2022-09-01T03:04:57;3.67;;;3.37;;
35897;SDS011;21997;47.118;15.346;2022-09-01T03:11:49;3.63;;;3.33;;
35897;SDS011;21997;47.118;15.346;2022-09-01T03:14:23;5.53;;;4.07;;
35897;SDS011;21997;47.118;15.346;2022-09-01T03:17:23;6.07;;;2.97;;
35897;SDS011;21997;47.118;15.346;2022-09-01T03:23:55;3.70;;;3.10;;
35897;SDS011;21997;47.118;15.346;2022-09-01T03:27:17;3.93;;;3.53;;
35897;SDS011;21997;47.118;15.346;2022-09-01T03:33:36;4.30;;;3.23;;
35897;SDS011;21997;47.118;15.346;2022-09-01T03:36:07;3.87;;;3.43;;
35897;SDS011;21997;47.118;15.346;2022-09-01T03:38:58;4.93;;;3.27;;
35897;SDS011;21997;47.118;15.346;2022-09-01T03:41:25;3.37;;;2.67;;
35897;SDS011;21997;47.118;15.346;2022-09-01T03:43:57;3.67;;;3.37;;
35897;SDS011;21997;47.118;15.346;2022-09-01T03:46:24;6.00;;;3.33;;
35897;SDS011;21997;47.118;15.346;2022-09-01T03:48:57;4.67;;;3.47;;
35897;SDS011;21997;47.118;15.346;2022-09-01T03:51:41;4.10;;;3.70;;
35897;SDS011;21997;47.118;15.346;2022-09-01T03:54:09;3.03;;;2.80;;
35897;SDS011;21997;47.118;15.346;2022-09-01T03:56:38;4.47;;;2.90;;
35897;SDS011;21997;47.118;15.346;2022-09-01T03:59:05;3.60;;;3.30;;
35897;SDS011;21997;47.118;15.346;2022-09-01T04:01:30;3.60;;;3.03;;
35897;SDS011;21997;47.118;15.346;2022-09-01T04:04:17;3.87;;;3.53;;
35897;SDS011;21997;47.118;15.346;2022-09-01T04:07:05;5.13;;;3.80;;
35897;SDS011;21997;47.118;15.346;2022-09-01T04:09:36;4.20;;;3.90;;
35897;SDS011;21997;47.118;15.346;2022-09-01T04:12:19;4.03;;;3.60;;
35897;SDS011;21997;47.118;15.346;2022-09-01T04:15:02;5.13;;;3.70;;
35897;SDS011;21997;47.118;15.346;2022-09-01T04:17:41;3.80;;;3.40;;
35897;SDS011;21997;47.118;15.346;2022-09-01T04:20:45;4.07;;;3.70;;
35897;SDS011;21997;47.118;15.346;2022-09-01T04:23:39;4.50;;;3.40;;
35897;SDS011;21997;47.118;15.346;2022-09-01T04:26:59;7.10;;;3.70;;
35897;SDS011;21997;47.118;15.346;2022-09-01T04:29:28;4.40;;;3.30;;
35897;SDS011;21997;47.118;15.346;2022-09-01T04:31:59;4.40;;;4.00;;
35897;SDS011;21997;47.118;15.346;2022-09-01T04:34:30;5.33;;;3.80;;
35897;SDS011;21997;47.118;15.346;2022-09-01T04:37:14;6.27;;;3.90;;
35897;SDS011;21997;47.118;15.346;2022-09-01T04:39:47;4.57;;;4.17;;
35897;SDS011;21997;47.118;15.346;2022-09-01T04:42:16;5.33;;;4.07;;
35897;SDS011;21997;47.118;15.346;2022-09-01T04:44:43;5.10;;;3.67;;
35897;SDS011;21997;47.118;15.346;2022-09-01T04:47:11;7.03;;;3.90;;
35897;SDS011;21997;47.118;15.346;2022-09-01T04:49:41;5.23;;;3.73;;
35897;SDS011;21997;47.118;15.346;2022-09-01T04:52:09;4.50;;;4.03;;
35897;SDS011;21997;47.118;15.346;2022-09-01T04:54:36;4.17;;;3.50;;
35897;SDS011;21997;47.118;15.346;2022-09-01T04:57:02;5.40;;;3.77;;
35897;SDS011;21997;47.118;15.346;2022-09-01T04:59:30;4.50;;;3.87;;
35897;SDS011;21997;47.118;15.346;2022-09-01T05:01:56;5.37;;;4.87;;
35897;SDS011;21997;47.118;15.346;2022-09-01T05:04:26;4.50;;;4.10;;
35897;SDS011;21997;47.118;15.346;2022-09-01T05:07:16;5.10;;;4.57;;
35897;SDS011;21997;47.118;15.346;2022-09-01T05:09:54;4.30;;;3.83;;
35897;SDS011;21997;47.118;15.346;2022-09-01T05:12:21;4.90;;;4.50;;
35897;SDS011;21997;47.118;15.346;2022-09-01T05:14:48;4.13;;;3.73;;
35897;SDS011;21997;47.118;15.346;2022-09-01T05:17:14;4.60;;;4.13;;
35897;SDS011;21997;47.118;15.346;2022-09-01T05:19:42;9.27;;;4.57;;
35897;SDS011;21997;47.118;15.346;2022-09-01T05:22:11;6.23;;;4.40;;
35897;SDS011;21997;47.118;15.346;2022-09-01T05:24:38;5.00;;;4.50;;
35897;SDS011;21997;47.118;15.346;2022-09-01T05:27:04;4.23;;;3.93;;
35897;SDS011;21997;47.118;15.346;2022-09-01T05:29:30;5.03;;;4.33;;
35897;SDS011;21997;47.118;15.346;2022-09-01T05:31:55;4.97;;;4.47;;
35897;SDS011;21997;47.118;15.346;2022-09-01T05:34:21;5.10;;;4.20;;
35897;SDS011;21997;47.118;15.346;2022-09-01T05:36:51;4.93;;;4.30;;
35897;SDS011;21997;47.118;15.346;2022-09-01T05:39:18;5.60;;;4.17;;
35897;SDS011;21997;47.118;15.346;2022-09-01T05:41:44;6.23;;;4.07;;
35897;SDS011;21997;47.118;15.346;2022-09-01T05:44:13;5.87;;;4.20;;
35897;SDS011;21997;47.118;15.346;2022-09-01T05:46:39;4.63;;;4.10;;
35897;SDS011;21997;47.118;15.346;2022-09-01T05:49:08;7.30;;;4.10;;
35897;SDS011;21997;47.118;15.346;2022-09-01T05:51:38;5.93;;;4.47;;
35897;SDS011;21997;47.118;15.346;2022-09-01T05:54:06;5.47;;;4.17;;
35897;SDS011;21997;47.118;15.346;2022-09-01T05:56:33;3.97;;;3.37;;
35897;SDS011;21997;47.118;15.346;2022-09-01T05:58:59;3.53;;;3.23;;
35897;SDS011;21997;47.118;15.346;2022-09-01T06:01:27;3.83;;;3.53;;
35897;SDS011;21997;47.118;15.346;2022-09-01T06:03:55;5.60;;;3.73;;
35897;SDS011;21997;47.118;15.346;2022-09-01T06:06:27;4.03;;;3.63;;
35897;SDS011;21997;47.118;15.346;2022-09-01T06:08:56;4.20;;;3.80;;
35897;SDS011;21997;47.118;15.346;2022-09-01T06:11:23;3.30;;;3.00;;
35897;SDS011;21997;47.118;15.346;2022-09-01T06:13:51;4.00;;;3.10;;
35897;SDS011;21997;47.118;15.346;2022-09-01T06:16:21;3.60;;;3.30;;
35897;SDS011;21997;47.118;15.346;2022-09-01T06:18:48;5.40;;;3.17;;
35897;SDS011;21997;47.118;15.346;2022-09-01T06:21:16;3.10;;;2.80;;
35897;SDS011;21997;47.118;15.346;2022-09-01T06:23:44;3.10;;;2.67;;
35897;SDS011;21997;47.118;15.346;2022-09-01T06:26:21;2.83;;;2.63;;
35897;SDS011;21997;47.118;15.346;2022-09-01T06:28:52;3.33;;;2.60;;
35897;SDS011;21997;47.118;15.346;2022-09-01T06:31:19;3.27;;;2.70;;
35897;SDS011;21997;47.118;15.346;2022-09-01T06:33:52;2.83;;;2.43;;
35897;SDS011;21997;47.118;15.346;2022-09-01T06:36:21;2.93;;;2.73;;
35897;SDS011;21997;47.118;15.346;2022-09-01T06:38:50;2.90;;;2.60;;
35897;SDS011;21997;47.118;15.346;2022-09-01T06:41:16;4.80;;;2.53;;
35897;SDS011;21997;47.118;15.346;2022-09-01T06:43:44;2.03;;;1.83;;
35897;SDS011;21997;47.118;15.346;2022-09-01T06:46:10;5.63;;;2.60;;
35897;SDS011;21997;47.118;15.346;2022-09-01T06:48:37;3.50;;;2.47;;
35897;SDS011;21997;47.118;15.346;2022-09-01T06:51:11;2.60;;;2.40;;
35897;SDS011;21997;47.118;15.346;2022-09-01T06:53:41;2.63;;;1.80;;
35897;SDS011;21997;47.118;15.346;2022-09-01T06:56:08;4.17;;;2.20;;
35897;SDS011;21997;47.118;15.346;2022-09-01T06:58:41;2.63;;;2.00;;
35897;SDS011;21997;47.118;15.346;2022-09-01T07:01:09;2.70;;;2.50;;
35897;SDS011;21997;47.118;15.346;2022-09-01T07:03:39;3.27;;;2.20;;
35897;SDS011;21997;47.118;15.346;2022-09-01T07:06:08;2.30;;;2.10;;
35897;SDS011;21997;47.118;15.346;2022-09-01T07:08:36;3.37;;;2.07;;
35897;SDS011;21997;47.118;15.346;2022-09-01T07:11:04;3.43;;;2.40;;
35897;SDS011;21997;47.118;15.346;2022-09-01T07:13:33;2.20;;;2.00;;
35897;SDS011;21997;47.118;15.346;2022-09-01T07:16:00;2.20;;;1.57;;
35897;SDS011;21997;47.118;15.346;2022-09-01T07:18:28;2.20;;;2.10;;
35897;SDS011;21997;47.118;15.346;2022-09-01T07:20:55;3.23;;;2.10;;
35897;SDS011;21997;47.118;15.346;2022-09-01T07:23:20;1.83;;;1.73;;
35897;SDS011;21997;47.118;15.346;2022-09-01T07:25:49;2.13;;;1.90;;
35897;SDS011;21997;47.118;15.346;2022-09-01T07:28:20;2.67;;;2.23;;
35897;SDS011;21997;47.118;15.346;2022-09-01T07:30:48;2.23;;;2.00;;
35897;SDS011;21997;47.118;15.346;2022-09-01T07:33:15;5.17;;;2.20;;
35897;SDS011;21997;47.118;15.346;2022-09-01T07:35:44;3.00;;;2.00;;
35897;SDS011;21997;47.118;15.346;2022-09-01T07:38:10;2.50;;;2.30;;
35897;SDS011;21997;47.118;15.346;2022-09-01T07:40:38;1.97;;;1.80;;
35897;SDS011;21997;47.118;15.346;2022-09-01T07:43:13;2.00;;;1.73;;
35897;SDS011;21997;47.118;15.346;2022-09-01T07:45:44;2.23;;;1.90;;
35897;SDS011;21997;47.118;15.346;2022-09-01T07:48:13;2.97;;;2.10;;
35897;SDS011;21997;47.118;15.346;2022-09-01T07:50:44;3.03;;;1.90;;
35897;SDS011;21997;47.118;15.346;2022-09-01T07:53:11;1.70;;;1.60;;
35897;SDS011;21997;47.118;15.346;2022-09-01T07:55:45;3.63;;;2.10;;
35897;SDS011;21997;47.118;15.346;2022-09-01T07:58:14;2.77;;;1.60;;
35897;SDS011;21997;47.118;15.346;2022-09-01T08:00:40;2.67;;;1.90;;
35897;SDS011;21997;47.118;15.346;2022-09-01T08:03:09;3.93;;;1.90;;
35897;SDS011;21997;47.118;15.346;2022-09-01T08:05:34;2.93;;;1.80;;
35897;SDS011;21997;47.118;15.346;2022-09-01T08:08:00;2.40;;;2.20;;
35897;SDS011;21997;47.118;15.346;2022-09-01T08:10:25;3.47;;;1.93;;
35897;SDS011;21997;47.118;15.346;2022-09-01T08:12:51;2.57;;;1.87;;
35897;SDS011;21997;47.118;15.346;2022-09-01T08:15:17;1.83;;;1.67;;
35897;SDS011;21997;47.118;15.346;2022-09-01T08:17:44;2.67;;;1.87;;
35897;SDS011;21997;47.118;15.346;2022-09-01T08:20:10;1.70;;;1.60;;
35897;SDS011;21997;47.118;15.346;2022-09-01T08:22:36;2.50;;;1.60;;
35897;SDS011;21997;47.118;15.346;2022-09-01T08:25:05;1.60;;;1.50;;
35897;SDS011;21997;47.118;15.346;2022-09-01T08:27:32;1.63;;;1.53;;
35897;SDS011;21997;47.118;15.346;2022-09-01T08:30:00;2.93;;;1.57;;
35897;SDS011;21997;47.118;15.346;2022-09-01T08:32:28;2.80;;;1.43;;
35897;SDS011;21997;47.118;15.346;2022-09-01T08:34:54;2.90;;;1.53;;
35897;SDS011;21997;47.118;15.346;2022-09-01T08:37:21;2.80;;;1.70;;
35897;SDS011;21997;47.118;15.346;2022-09-01T08:39:46;1.33;;;1.23;;
35897;SDS011;21997;47.118;15.346;2022-09-01T08:45:20;2.57;;;1.50;;
35897;SDS011;21997;47.118;15.346;2022-09-01T08:47:56;1.50;;;1.20;;
35897;SDS011;21997;47.118;15.346;2022-09-01T08:50:23;1.60;;;1.50;;
35897;SDS011;21997;47.118;15.346;2022-09-01T08:52:54;1.93;;;1.70;;
35897;SDS011;21997;47.118;15.346;2022-09-01T08:55:34;1.27;;;1.17;;
35897;SDS011;21997;47.118;15.346;2022-09-01T08:58:02;2.10;;;1.57;;
35897;SDS011;21997;47.118;15.346;2022-09-01T09:00:32;2.10;;;1.60;;
35897;SDS011;21997;47.118;15.346;2022-09-01T09:03:17;2.20;;;1.47;;
35897;SDS011;21997;47.118;15.346;2022-09-01T09:06:16;3.27;;;2.03;;
35897;SDS011;21997;47.118;15.346;2022-09-01T09:08:56;2.00;;;1.43;;
35897;SDS011;21997;47.118;15.346;2022-09-01T09:17:33;1.60;;;1.50;;
35897;SDS011;21997;47.118;15.346;2022-09-01T09:20:57;2.73;;;1.90;;
35897;SDS011;21997;47.118;15.346;2022-09-01T09:23:44;1.77;;;1.30;;
35897;SDS011;21997;47.118;15.346;2022-09-01T09:33:11;1.97;;;1.40;;
35897;SDS011;21997;47.118;15.346;2022-09-01T09:39:30;1.17;;;0.90;;
35897;SDS011;21997;47.118;15.346;2022-09-01T09:45:32;1.57;;;1.00;;
35897;SDS011;21997;47.118;15.346;2022-09-01T09:48:29;1.60;;;1.13;;
35897;SDS011;21997;47.118;15.346;2022-09-01T09:55:35;1.37;;;1.03;;
35897;SDS011;21997;47.118;15.346;2022-09-01T10:01:31;1.40;;;1.00;;
35897;SDS011;21997;47.118;15.346;2022-09-01T10:21:00;1.27;;;0.88;;
35897;SDS011;21997;47.118;15.346;2022-09-01T10:29:54;1.05;;;0.77;;
35897;SDS011;21997;47.118;15.346;2022-09-01T10:39:02;1.10;;;0.90;;
35897;SDS011;21997;47.118;15.346;2022-09-01T10:44:57;1.33;;;1.10;;
35897;SDS011;21997;47.118;15.346;2022-09-01T10:47:26;1.02;;;0.82;;
35897;SDS011;21997;47.118;15.346;2022-09-01T11:06:53;1.10;;;1.00;;
35897;SDS011;21997;47.118;15.346;2022-09-01T11:15:31;0.82;;;0.82;;
35897;SDS011;21997;47.118;15.346;2022-09-01T11:17:59;0.65;;;0.65;;
35897;SDS011;21997;47.118;15.346;2022-09-01T11:20:26;0.80;;;0.80;;
35897;SDS011;21997;47.118;15.346;2022-09-01T11:30:52;0.70;;;0.70;;
35897;SDS011;21997;47.118;15.346;2022-09-01T11:36:12;1.08;;;0.80;;
35897;SDS011;21997;47.118;15.346;2022-09-01T11:41:26;1.02;;;0.70;;
35897;SDS011;21997;47.118;15.346;2022-09-01T11:43:58;1.65;;;0.80;;
35897;SDS011;21997;47.118;15.346;2022-09-01T11:46:26;2.05;;;1.00;;
35897;SDS011;21997;47.118;15.346;2022-09-01T11:48:53;1.15;;;0.80;;
35897;SDS011;21997;47.118;15.346;2022-09-01T11:51:19;0.70;;;0.60;;
35897;SDS011;21997;47.118;15.346;2022-09-01T11:53:45;1.20;;;0.70;;
35897;SDS011;21997;47.118;15.346;2022-09-01T11:56:15;2.05;;;0.60;;
35897;SDS011;21997;47.118;15.346;2022-09-01T11:58:47;0.95;;;0.75;;
35897;SDS011;21997;47.118;15.346;2022-09-01T12:01:36;2.30;;;1.58;;
35897;SDS011;21997;47.118;15.346;2022-09-01T12:04:19;2.20;;;1.63;;
35897;SDS011;21997;47.118;15.346;2022-09-01T12:06:56;2.20;;;0.90;;
35897;SDS011;21997;47.118;15.346;2022-09-01T12:09:37;0.82;;;0.77;;
35897;SDS011;21997;47.118;15.346;2022-09-01T12:12:29;1.27;;;0.70;;
35897;SDS011;21997;47.118;15.346;2022-09-01T12:17:47;1.48;;;1.23;;
35897;SDS011;21997;47.118;15.346;2022-09-01T12:20:33;1.07;;;0.83;;
35897;SDS011;21997;47.118;15.346;2022-09-01T12:23:00;1.23;;;0.77;;
35897;SDS011;21997;47.118;15.346;2022-09-01T12:25:30;1.10;;;0.87;;
35897;SDS011;21997;47.118;15.346;2022-09-01T12:28:02;2.10;;;1.10;;
35897;SDS011;21997;47.118;15.346;2022-09-01T12:30:30;2.27;;;1.67;;
35897;SDS011;21997;47.118;15.346;2022-09-01T12:32:59;3.10;;;1.60;;
35897;SDS011;21997;47.118;15.346;2022-09-01T12:35:26;1.37;;;1.10;;
35897;SDS011;21997;47.118;15.346;2022-09-01T12:37:52;2.33;;;1.23;;
35897;SDS011;21997;47.118;15.346;2022-09-01T12:40:42;1.40;;;1.30;;
35897;SDS011;21997;47.118;15.346;2022-09-01T12:43:08;4.30;;;1.97;;
35897;SDS011;21997;47.118;15.346;2022-09-01T12:45:35;2.73;;;1.60;;
35897;SDS011;21997;47.118;15.346;2022-09-01T12:48:04;1.90;;;1.80;;
35897;SDS011;21997;47.118;15.346;2022-09-01T12:50:31;1.60;;;1.50;;
35897;SDS011;21997;47.118;15.346;2022-09-01T12:52:59;1.70;;;1.60;;
35897;SDS011;21997;47.118;15.346;2022-09-01T12:55:26;1.67;;;1.57;;
35897;SDS011;21997;47.118;15.346;2022-09-01T12:57:55;2.70;;;1.60;;
35897;SDS011;21997;47.118;15.346;2022-09-01T13:00:27;1.90;;;1.70;;
35897;SDS011;21997;47.118;15.346;2022-09-01T13:03:15;3.03;;;1.50;;
35897;SDS011;21997;47.118;15.346;2022-09-01T13:05:44;2.57;;;1.47;;
